M.y. Libra Star — 3ALV — position and weather

sailwx.info

Track history (hours):
 
Tides and Currents Weather Stations Pressure Air Temp Water Temp Dewpoint Dewpoint Depression Visibility Wind Speed Wind Dir Waves Ship Positions

M.y. Libra Star

Last reported at 2015-Sep-04 15:32 UTC. Time now 2015-Sep-04 21:03 UTC.
Position N 43°16' E 006°38'.

Length 40 m; draft 3 m.

Type: Pleasure craft. MMSI: 254450000.

Date/timePositionNaut miles runAvg speedWind from/ knotsBaromVisibWave heightAir tempDewpointWater temp
2015-Sep-04 15:32N 43°16' E 006°38'3 2.9
2015-Sep-04 14:29N 43°14' E 006°40'0 0.0
2015-Sep-04 13:26N 43°14' E 006°40'0 0.0
2015-Sep-04 12:30N 43°14' E 006°40'0 0.0
2015-Sep-04 11:29N 43°14' E 006°40'0 0.0
2015-Sep-04 10:17N 43°14' E 006°40'0 0.0
2015-Sep-04 09:29N 43°14' E 006°40'3 3.6
2015-Sep-04 08:32N 43°17' E 006°39'1 0.0
2015-Sep-03 14:33N 43°16' E 006°38'3 2.8
2015-Sep-03 13:25N 43°14' E 006°40'0 0.0
2015-Sep-03 12:28N 43°14' E 006°40'0 0.0
2015-Sep-03 11:10N 43°14' E 006°40'0 0.0
2015-Sep-03 10:28N 43°14' E 006°40'0 0.0
2015-Sep-03 09:28N 43°14' E 006°40'3 3.3
2015-Sep-03 08:27N 43°17' E 006°38'0 0.3
2015-Sep-03 07:28N 43°16' E 006°38'0 0.0
2015-Sep-03 06:31N 43°16' E 006°38'0 0.0
2015-Sep-03 05:31N 43°16' E 006°38'0 0.0
2015-Sep-03 04:28N 43°16' E 006°38'0 0.0
2015-Sep-03 03:31N 43°16' E 006°38'0 0.0
2015-Sep-03 02:28N 43°16' E 006°38'0 0.0
2015-Sep-03 01:28N 43°16' E 006°38'0 0.0
2015-Sep-03 00:28N 43°16' E 006°38'0 0.0
2015-Sep-02 23:28N 43°16' E 006°38'0 0.0
2015-Sep-02 22:31N 43°16' E 006°38'0 0.0
2015-Sep-02 21:28N 43°16' E 006°38'0 0.0
2015-Sep-02 20:31N 43°16' E 006°38'0 0.0
2015-Sep-02 19:31N 43°16' E 006°38'0 0.0
2015-Sep-02 18:28N 43°16' E 006°38'0 0.0
2015-Sep-02 17:28N 43°16' E 006°38'0 0.3
2015-Sep-02 16:33N 43°17' E 006°38'5 4.3
2015-Sep-02 15:28N 43°12' E 006°41'0 0.0
2015-Sep-02 14:25N 43°12' E 006°41'0 0.0
2015-Sep-02 13:28N 43°12' E 006°41'0 0.0
2015-Sep-02 12:29N 43°12' E 006°41'0 0.0
2015-Sep-02 11:28N 43°12' E 006°41'0 0.0
2015-Sep-02 10:28N 43°12' E 006°41'0 0.0
2015-Sep-02 09:28N 43°12' E 006°41'0 0.0
2015-Sep-02 08:33N 43°12' E 006°41'1 0.9
2015-Sep-02 07:31N 43°13' E 006°40'0 0.0
2015-Sep-02 06:31N 43°13' E 006°40'0 0.0
2015-Sep-02 05:13N 43°13' E 006°40'0 0.0
2015-Sep-02 04:31N 43°13' E 006°40'0 0.0
2015-Sep-02 03:31N 43°13' E 006°40'0 0.0
2015-Sep-02 02:31N 43°13' E 006°40'0 0.0
2015-Sep-02 01:31N 43°13' E 006°40'0 0.0
2015-Sep-02 00:31N 43°13' E 006°40'8 8.8
2015-Sep-01 23:33N 43°06' E 006°47'1211.8
2015-Sep-01 22:33N 42°56' E 006°53'1211.8
2015-Sep-01 21:33N 42°44' E 006°58'  
2015-Aug-27 17:14N 43°32' E 007°34'912.3
2015-Aug-27 16:32N 43°40' E 007°29'  
Track history (hours):
 
Tides and Currents Weather Stations Pressure Air Temp Water Temp Dewpoint Dewpoint Depression Visibility Wind Speed Wind Dir Waves Ship Positions

M.y. Libra Star

Last reported at 2015-Sep-04 15:32 UTC. Time now 2015-Sep-04 21:03 UTC.
Position N 43°16' E 006°38'.

Length 40 m; draft 3 m.

Type: Pleasure craft. MMSI: 254450000.

Date/timePositionNaut miles runAvg speedWind from/ knotsBaromVisibWave heightAir tempDewpointWater temp
2015-Sep-04 15:32N 43°16' E 006°38'3 2.9
2015-Sep-04 14:29N 43°14' E 006°40'0 0.0
2015-Sep-04 13:26N 43°14' E 006°40'0 0.0
2015-Sep-04 12:30N 43°14' E 006°40'0 0.0
2015-Sep-04 11:29N 43°14' E 006°40'0 0.0
2015-Sep-04 10:17N 43°14' E 006°40'0 0.0
2015-Sep-04 09:29N 43°14' E 006°40'3 3.6
2015-Sep-04 08:32N 43°17' E 006°39'1 0.0
2015-Sep-03 14:33N 43°16' E 006°38'3 2.8
2015-Sep-03 13:25N 43°14' E 006°40'0 0.0
2015-Sep-03 12:28N 43°14' E 006°40'0 0.0
2015-Sep-03 11:10N 43°14' E 006°40'0 0.0
2015-Sep-03 10:28N 43°14' E 006°40'0 0.0
2015-Sep-03 09:28N 43°14' E 006°40'3 3.3
2015-Sep-03 08:27N 43°17' E 006°38'0 0.3
2015-Sep-03 07:28N 43°16' E 006°38'0 0.0
2015-Sep-03 06:31N 43°16' E 006°38'0 0.0
2015-Sep-03 05:31N 43°16' E 006°38'0 0.0
2015-Sep-03 04:28N 43°16' E 006°38'0 0.0
2015-Sep-03 03:31N 43°16' E 006°38'0 0.0
2015-Sep-03 02:28N 43°16' E 006°38'0 0.0
2015-Sep-03 01:28N 43°16' E 006°38'0 0.0
2015-Sep-03 00:28N 43°16' E 006°38'0 0.0
2015-Sep-02 23:28N 43°16' E 006°38'0 0.0
2015-Sep-02 22:31N 43°16' E 006°38'0 0.0
2015-Sep-02 21:28N 43°16' E 006°38'0 0.0
2015-Sep-02 20:31N 43°16' E 006°38'0 0.0
2015-Sep-02 19:31N 43°16' E 006°38'0 0.0
2015-Sep-02 18:28N 43°16' E 006°38'0 0.0
2015-Sep-02 17:28N 43°16' E 006°38'0 0.3
2015-Sep-02 16:33N 43°17' E 006°38'5 4.3
2015-Sep-02 15:28N 43°12' E 006°41'0 0.0
2015-Sep-02 14:25N 43°12' E 006°41'0 0.0
2015-Sep-02 13:28N 43°12' E 006°41'0 0.0
2015-Sep-02 12:29N 43°12' E 006°41'0 0.0
2015-Sep-02 11:28N 43°12' E 006°41'0 0.0
2015-Sep-02 10:28N 43°12' E 006°41'0 0.0
2015-Sep-02 09:28N 43°12' E 006°41'0 0.0
2015-Sep-02 08:33N 43°12' E 006°41'1 0.9
2015-Sep-02 07:31N 43°13' E 006°40'0 0.0
2015-Sep-02 06:31N 43°13' E 006°40'0 0.0
2015-Sep-02 05:13N 43°13' E 006°40'0 0.0
2015-Sep-02 04:31N 43°13' E 006°40'0 0.0
2015-Sep-02 03:31N 43°13' E 006°40'0 0.0
2015-Sep-02 02:31N 43°13' E 006°40'0 0.0
2015-Sep-02 01:31N 43°13' E 006°40'0 0.0
2015-Sep-02 00:31N 43°13' E 006°40'8 8.8
2015-Sep-01 23:33N 43°06' E 006°47'1211.8
2015-Sep-01 22:33N 42°56' E 006°53'1211.8
2015-Sep-01 21:33N 42°44' E 006°58'  
2015-Aug-27 17:14N 43°32' E 007°34'912.3
2015-Aug-27 16:32N 43°40' E 007°29'  

Dump ship's entire track history